Time;durP1;ratioP1;P1;durP2;ratioP2;P2;SDS_P1;SDS_P2;PMS_P1;PMS_P2;Temp;Humidity;BMP_temperature;BMP_pressure;BME280_temperature;BME280_humidity;BME280_pressure;Samples;Min_cycle;Max_cycle;Signal;HPM_P1;HPM_P2
2022/09/07 00:01:01;;;;;;;4.50;1.80;;;;;;;;;;2337880;57;21029;-76
2022/09/07 00:03:28;;;;;;;2.10;1.40;;;;;;;;;;2337889;57;21037;-76
2022/09/07 00:05:55;;;;;;;5.25;2.03;;;;;;;;;;2337482;57;21037;-76
2022/09/07 00:08:24;;;;;;;2.08;1.52;;;;;;;;;;2582890;53;21037;-74
2022/09/07 00:10:55;;;;;;;4.22;1.60;;;;;;;;;;2582984;53;21104;-74
2022/09/07 00:13:22;;;;;;;2.00;1.58;;;;;;;;;;2582767;53;21129;-76
2022/09/07 00:15:50;;;;;;;1.70;1.55;;;;;;;;;;2337250;57;21100;-76
2022/09/07 00:18:17;;;;;;;2.53;1.67;;;;;;;;;;2582959;53;21076;-76
2022/09/07 00:20:44;;;;;;;1.58;1.20;;;;;;;;;;2337930;57;21610;-76
2022/09/07 00:23:11;;;;;;;6.75;1.90;;;;;;;;;;2337904;57;21091;-76
2022/09/07 00:31:56;;;;;;;3.50;1.58;;;;;;;;;;2337948;57;20945;-77
2022/09/07 00:34:23;;;;;;;3.92;1.83;;;;;;;;;;2337550;57;21535;-77
2022/09/07 00:36:51;;;;;;;2.00;1.50;;;;;;;;;;2337061;57;21041;-74
2022/09/07 00:39:18;;;;;;;2.58;1.55;;;;;;;;;;2582851;53;21076;-76
2022/09/07 00:41:45;;;;;;;3.00;1.65;;;;;;;;;;2337757;57;21036;-74
2022/09/07 00:44:30;;;;;;;3.40;1.58;;;;;;;;;;2337734;57;21037;-77
2022/09/07 00:46:57;;;;;;;3.83;1.60;;;;;;;;;;2337444;57;21730;-77
2022/09/07 00:49:24;;;;;;;1.52;1.42;;;;;;;;;;2337641;57;21021;-77
2022/09/07 00:51:53;;;;;;;5.15;1.90;;;;;;;;;;2583117;53;21514;-76
2022/09/07 00:54:21;;;;;;;1.92;1.60;;;;;;;;;;2583334;53;21025;-76
2022/09/07 00:56:51;;;;;;;1.90;1.50;;;;;;;;;;2337326;57;21020;-76
2022/09/07 00:59:20;;;;;;;6.90;1.50;;;;;;;;;;2583294;53;21291;-78
2022/09/07 01:01:47;;;;;;;1.65;1.48;;;;;;;;;;2338158;57;21060;-76
2022/09/07 01:04:15;;;;;;;3.05;1.48;;;;;;;;;;2337887;57;21036;-76
2022/09/07 01:06:43;;;;;;;1.50;1.40;;;;;;;;;;2337411;57;21029;-76
2022/09/07 01:09:12;;;;;;;3.85;1.70;;;;;;;;;;2338058;57;21088;-76
2022/09/07 01:11:39;;;;;;;4.32;1.92;;;;;;;;;;2337938;57;21113;-75
2022/09/07 01:14:07;;;;;;;2.97;1.80;;;;;;;;;;2337914;57;21021;-76
2022/09/07 01:16:43;;;;;;;2.42;1.67;;;;;;;;;;2350858;53;21093;-74
2022/09/07 01:19:22;;;;;;;2.33;1.40;;;;;;;;;;2302061;58;21110;-74
2022/09/07 01:21:56;;;;;;;3.80;1.67;;;;;;;;;;2388560;54;21647;-74
2022/09/07 01:24:38;;;;;;;2.15;1.48;;;;;;;;;;2326388;57;21109;-75
2022/09/07 01:27:32;;;;;;;5.80;1.58;;;;;;;;;;2381611;54;21030;-75
2022/09/07 01:30:02;;;;;;;10.23;2.30;;;;;;;;;;2329746;57;21030;-75
2022/09/07 01:32:34;;;;;;;2.37;1.60;;;;;;;;;;2329296;57;21117;-75
2022/09/07 01:35:03;;;;;;;5.03;2.37;;;;;;;;;;2340914;54;21512;-74
2022/09/07 01:37:37;;;;;;;3.72;1.60;;;;;;;;;;2329067;57;21125;-75
2022/09/07 01:40:07;;;;;;;3.47;1.95;;;;;;;;;;2329773;57;21042;-74
2022/09/07 01:42:38;;;;;;;5.20;2.28;;;;;;;;;;2329774;57;21094;-74
2022/09/07 01:45:10;;;;;;;2.80;1.98;;;;;;;;;;2329226;57;21089;-74
2022/09/07 01:47:40;;;;;;;3.47;1.67;;;;;;;;;;2329485;57;21042;-73
2022/09/07 01:50:09;;;;;;;4.07;2.40;;;;;;;;;;2329576;57;21046;-73
2022/09/07 01:52:39;;;;;;;3.05;2.35;;;;;;;;;;2329657;57;21040;-74
2022/09/07 01:55:10;;;;;;;3.33;1.90;;;;;;;;;;2329468;57;21031;-74
2022/09/07 01:57:39;;;;;;;6.40;2.22;;;;;;;;;;2329302;57;21057;-74
2022/09/07 02:00:07;;;;;;;6.03;2.05;;;;;;;;;;2329289;57;21025;-74
2022/09/07 02:02:38;;;;;;;4.43;1.73;;;;;;;;;;2329497;57;21037;-74
2022/09/07 02:05:07;;;;;;;2.92;1.92;;;;;;;;;;2423364;54;21097;-75
2022/09/07 02:07:36;;;;;;;3.42;2.17;;;;;;;;;;2329084;57;21026;-75
2022/09/07 02:10:08;;;;;;;10.52;2.47;;;;;;;;;;2329192;57;21046;-74
2022/09/07 02:12:37;;;;;;;2.90;1.98;;;;;;;;;;2336495;54;21090;-74
2022/09/07 02:15:07;;;;;;;2.28;1.85;;;;;;;;;;2329234;57;21014;-75
2022/09/07 02:17:36;;;;;;;4.47;2.17;;;;;;;;;;2436082;54;21018;-75
2022/09/07 02:20:06;;;;;;;4.03;2.70;;;;;;;;;;2329547;57;21106;-74
2022/09/07 02:22:37;;;;;;;5.45;2.00;;;;;;;;;;2396469;54;21117;-73
2022/09/07 02:25:06;;;;;;;3.65;2.45;;;;;;;;;;2329406;57;21118;-74
2022/09/07 02:27:36;;;;;;;2.90;2.40;;;;;;;;;;2329363;57;21293;-75
2022/09/07 02:30:03;;;;;;;3.22;2.35;;;;;;;;;;2329607;57;21022;-75
2022/09/07 02:32:30;;;;;;;3.92;2.10;;;;;;;;;;2329182;57;21065;-74
2022/09/07 02:34:57;;;;;;;4.20;2.20;;;;;;;;;;2329267;57;21034;-75
2022/09/07 02:37:27;;;;;;;4.57;2.78;;;;;;;;;;2328920;57;21172;-74
2022/09/07 02:39:54;;;;;;;4.15;2.53;;;;;;;;;;2329286;57;21029;-74
2022/09/07 02:42:21;;;;;;;6.85;3.35;;;;;;;;;;2329404;57;21708;-75
2022/09/07 02:44:48;;;;;;;7.43;3.45;;;;;;;;;;2329405;57;21448;-74
2022/09/07 02:47:26;;;;;;;4.20;3.17;;;;;;;;;;2328864;57;21687;-74
2022/09/07 02:50:18;;;;;;;6.82;2.95;;;;;;;;;;2329483;57;21038;-74
2022/09/07 02:52:52;;;;;;;4.25;3.15;;;;;;;;;;2326040;57;21524;-74
2022/09/07 02:55:26;;;;;;;6.35;3.60;;;;;;;;;;2329015;57;21682;-74
2022/09/07 02:57:59;;;;;;;7.37;3.50;;;;;;;;;;2329393;57;21113;-74
2022/09/07 03:00:30;;;;;;;6.07;3.50;;;;;;;;;;2329660;57;21026;-75
2022/09/07 03:03:00;;;;;;;5.78;3.53;;;;;;;;;;2329354;57;21094;-75
2022/09/07 03:05:30;;;;;;;5.90;3.37;;;;;;;;;;2329105;57;21038;-74
2022/09/07 03:08:00;;;;;;;7.32;3.80;;;;;;;;;;2329762;57;21046;-74
2022/09/07 03:10:28;;;;;;;7.22;3.67;;;;;;;;;;2329610;57;21149;-74
2022/09/07 03:12:55;;;;;;;5.55;3.53;;;;;;;;;;2329427;57;21049;-74
2022/09/07 03:15:23;;;;;;;10.35;4.40;;;;;;;;;;2328650;57;21670;-74
2022/09/07 03:17:51;;;;;;;7.40;4.45;;;;;;;;;;2328959;57;21051;-73
2022/09/07 03:20:18;;;;;;;7.35;4.32;;;;;;;;;;2329549;57;21030;-74
2022/09/07 03:22:46;;;;;;;8.55;4.07;;;;;;;;;;2329527;57;21041;-74
2022/09/07 03:25:14;;;;;;;7.65;4.18;;;;;;;;;;2329405;57;21106;-74
2022/09/07 03:27:41;;;;;;;6.87;4.65;;;;;;;;;;2329075;57;21085;-75
2022/09/07 03:30:10;;;;;;;8.18;4.68;;;;;;;;;;2329471;57;21124;-74
2022/09/07 03:32:38;;;;;;;8.20;4.37;;;;;;;;;;2329338;57;21674;-74
2022/09/07 03:35:07;;;;;;;9.63;4.78;;;;;;;;;;2329154;57;21184;-75
2022/09/07 03:37:36;;;;;;;7.87;4.47;;;;;;;;;;2329086;57;21160;-75
2022/09/07 03:40:03;;;;;;;8.90;4.43;;;;;;;;;;2329253;57;21042;-74
2022/09/07 03:42:30;;;;;;;8.27;4.30;;;;;;;;;;2343476;54;21053;-73
2022/09/07 03:44:57;;;;;;;10.73;4.43;;;;;;;;;;2329433;57;21033;-74
2022/09/07 03:47:25;;;;;;;7.75;4.50;;;;;;;;;;2333958;54;21112;-74
2022/09/07 03:49:52;;;;;;;6.40;3.87;;;;;;;;;;2328596;57;21050;-74
2022/09/07 03:52:19;;;;;;;10.73;4.72;;;;;;;;;;2333263;54;21046;-74
2022/09/07 03:54:46;;;;;;;7.53;4.40;;;;;;;;;;2329013;57;21280;-74
2022/09/07 03:57:13;;;;;;;6.62;3.97;;;;;;;;;;2328953;57;21527;-74
2022/09/07 03:59:40;;;;;;;11.55;4.60;;;;;;;;;;2329392;57;21030;-74
2022/09/07 04:02:07;;;;;;;10.70;4.75;;;;;;;;;;2329044;57;21125;-75
2022/09/07 04:04:35;;;;;;;6.37;4.12;;;;;;;;;;2341693;54;21610;-74
2022/09/07 04:07:02;;;;;;;8.23;4.55;;;;;;;;;;2328392;57;21113;-74
2022/09/07 04:09:29;;;;;;;7.35;4.35;;;;;;;;;;2329171;57;21041;-74
2022/09/07 04:11:56;;;;;;;7.35;4.03;;;;;;;;;;2329266;57;21116;-73
2022/09/07 04:14:24;;;;;;;7.70;4.30;;;;;;;;;;2329413;57;21046;-74
2022/09/07 04:16:51;;;;;;;5.22;3.92;;;;;;;;;;2328565;57;21430;-74
2022/09/07 04:19:18;;;;;;;5.87;4.07;;;;;;;;;;2329439;57;21112;-75
2022/09/07 04:21:46;;;;;;;7.32;4.70;;;;;;;;;;2329400;57;21038;-74
2022/09/07 04:24:13;;;;;;;11.23;4.72;;;;;;;;;;2329285;57;21128;-75
2022/09/07 04:26:42;;;;;;;9.45;4.15;;;;;;;;;;2328897;57;21284;-74
2022/09/07 04:29:09;;;;;;;6.57;3.70;;;;;;;;;;2329454;57;21081;-75
2022/09/07 04:31:36;;;;;;;6.35;3.65;;;;;;;;;;2329349;57;21579;-74
2022/09/07 04:34:03;;;;;;;7.20;4.30;;;;;;;;;;2329444;57;21097;-75
2022/09/07 04:36:31;;;;;;;8.18;4.00;;;;;;;;;;2328960;57;21038;-74
2022/09/07 04:38:59;;;;;;;6.22;3.60;;;;;;;;;;2477094;54;21029;-74
2022/09/07 04:41:26;;;;;;;5.10;3.50;;;;;;;;;;2329361;57;21034;-75
2022/09/07 04:43:55;;;;;;;6.07;3.20;;;;;;;;;;2329199;57;21041;-74
2022/09/07 04:46:23;;;;;;;4.37;3.20;;;;;;;;;;2328770;57;21034;-74
2022/09/07 04:48:50;;;;;;;5.07;3.30;;;;;;;;;;2329240;57;21038;-73
2022/09/07 04:51:18;;;;;;;8.75;3.33;;;;;;;;;;2329615;57;21114;-74
2022/09/07 04:53:47;;;;;;;4.32;3.00;;;;;;;;;;2329386;57;21109;-74
2022/09/07 04:56:15;;;;;;;5.35;3.33;;;;;;;;;;2328952;57;21042;-75
2022/09/07 04:58:42;;;;;;;5.10;2.60;;;;;;;;;;2329536;57;21038;-74
2022/09/07 05:01:09;;;;;;;4.60;3.25;;;;;;;;;;2329589;57;21042;-74
2022/09/07 05:03:38;;;;;;;5.75;2.83;;;;;;;;;;2329575;57;21037;-74
2022/09/07 05:06:06;;;;;;;7.35;2.80;;;;;;;;;;2329087;57;21117;-74
2022/09/07 05:08:36;;;;;;;9.93;3.75;;;;;;;;;;2329543;57;21117;-75
2022/09/07 05:11:04;;;;;;;5.05;3.08;;;;;;;;;;2329608;57;21030;-74
2022/09/07 05:13:31;;;;;;;6.12;3.10;;;;;;;;;;2329362;57;21090;-74
2022/09/07 05:15:58;;;;;;;5.97;3.05;;;;;;;;;;2329056;57;21176;-75
2022/09/07 05:18:25;;;;;;;7.65;3.10;;;;;;;;;;2329299;57;21085;-74
2022/09/07 05:20:53;;;;;;;4.12;2.62;;;;;;;;;;2329750;57;21082;-75
2022/09/07 05:23:21;;;;;;;3.95;2.62;;;;;;;;;;2329543;57;21596;-75
2022/09/07 05:25:49;;;;;;;4.60;2.90;;;;;;;;;;2329072;57;21181;-74
2022/09/07 05:28:16;;;;;;;5.03;3.00;;;;;;;;;;2329644;57;21038;-74
2022/09/07 05:30:43;;;;;;;5.80;2.70;;;;;;;;;;2329789;57;21049;-75
2022/09/07 05:33:11;;;;;;;4.10;2.65;;;;;;;;;;2329469;57;21120;-74
2022/09/07 05:35:38;;;;;;;6.03;3.08;;;;;;;;;;2329007;57;21133;-74
2022/09/07 05:38:05;;;;;;;6.03;2.70;;;;;;;;;;2329753;57;21117;-75
2022/09/07 05:40:33;;;;;;;4.47;2.60;;;;;;;;;;2329753;57;21520;-74
2022/09/07 05:43:00;;;;;;;4.78;3.15;;;;;;;;;;2329592;57;21042;-75
2022/09/07 05:45:27;;;;;;;5.05;2.80;;;;;;;;;;2329290;57;21547;-74
2022/09/07 05:47:54;;;;;;;5.62;3.40;;;;;;;;;;2329687;57;21038;-75
2022/09/07 05:50:22;;;;;;;5.25;3.00;;;;;;;;;;2329698;57;21543;-74
2022/09/07 05:52:49;;;;;;;4.57;3.10;;;;;;;;;;2329442;57;21113;-75
2022/09/07 05:55:16;;;;;;;4.50;2.72;;;;;;;;;;2329107;57;21042;-75
2022/09/07 05:57:43;;;;;;;5.97;3.12;;;;;;;;;;2329409;57;21133;-75
2022/09/07 06:00:13;;;;;;;3.65;2.85;;;;;;;;;;2329731;57;21105;-74
2022/09/07 06:02:40;;;;;;;4.53;3.17;;;;;;;;;;2470253;53;21113;-74
2022/09/07 06:05:10;;;;;;;5.57;3.40;;;;;;;;;;2329362;57;21121;-74
2022/09/07 06:07:37;;;;;;;6.35;3.10;;;;;;;;;;2329597;57;21025;-75
2022/09/07 06:10:05;;;;;;;6.97;3.22;;;;;;;;;;2329435;57;21645;-74
2022/09/07 06:12:32;;;;;;;4.55;2.95;;;;;;;;;;2329426;57;21121;-74
2022/09/07 06:15:00;;;;;;;4.47;3.05;;;;;;;;;;2329481;57;21034;-74
2022/09/07 06:17:27;;;;;;;7.82;3.28;;;;;;;;;;2339792;54;21046;-75
2022/09/07 06:19:55;;;;;;;7.05;3.22;;;;;;;;;;2337227;54;21133;-74
2022/09/07 06:22:22;;;;;;;6.40;2.97;;;;;;;;;;2340784;54;21101;-75
2022/09/07 06:24:49;;;;;;;6.87;3.60;;;;;;;;;;2330328;57;21609;-74
2022/09/07 06:27:16;;;;;;;5.75;2.90;;;;;;;;;;2339036;54;21038;-75
2022/09/07 06:29:43;;;;;;;4.57;2.80;;;;;;;;;;2330733;57;21038;-75
2022/09/07 06:32:10;;;;;;;7.07;2.92;;;;;;;;;;2341162;54;21090;-74
2022/09/07 06:34:37;;;;;;;4.57;2.62;;;;;;;;;;2330702;57;21034;-75
2022/09/07 06:37:04;;;;;;;5.25;3.28;;;;;;;;;;2464214;54;21105;-75
2022/09/07 06:39:33;;;;;;;5.90;3.42;;;;;;;;;;2330646;57;21117;-75
2022/09/07 06:42:00;;;;;;;6.55;3.12;;;;;;;;;;2330796;57;21410;-75
2022/09/07 06:44:28;;;;;;;6.45;3.25;;;;;;;;;;2330661;57;21042;-75
2022/09/07 06:46:55;;;;;;;5.25;2.80;;;;;;;;;;2330311;57;21026;-74
2022/09/07 06:49:22;;;;;;;6.50;3.28;;;;;;;;;;2330642;56;21077;-74
2022/09/07 06:51:50;;;;;;;6.32;3.40;;;;;;;;;;2330523;57;21109;-74
2022/09/07 06:54:17;;;;;;;5.15;3.08;;;;;;;;;;2330730;57;22191;-75
2022/09/07 06:56:44;;;;;;;6.80;3.62;;;;;;;;;;2330145;57;21037;-74
2022/09/07 06:59:11;;;;;;;6.30;3.15;;;;;;;;;;2330781;57;21041;-74
2022/09/07 07:01:39;;;;;;;7.12;2.87;;;;;;;;;;2330750;57;21492;-74
2022/09/07 07:04:06;;;;;;;6.32;3.90;;;;;;;;;;2330620;57;21046;-74
2022/09/07 07:06:34;;;;;;;5.82;3.40;;;;;;;;;;2330350;57;21018;-75
2022/09/07 07:09:01;;;;;;;5.60;2.87;;;;;;;;;;2330568;57;21065;-75
2022/09/07 07:11:29;;;;;;;6.62;2.62;;;;;;;;;;2330752;57;21359;-75
2022/09/07 07:13:57;;;;;;;8.43;3.03;;;;;;;;;;2330463;57;21196;-74
2022/09/07 07:16:24;;;;;;;5.28;2.87;;;;;;;;;;2450747;54;21046;-75
2022/09/07 07:18:54;;;;;;;8.55;2.97;;;;;;;;;;2614684;52;71593;-83
2022/09/07 07:21:21;;;;;;;4.32;2.80;;;;;;;;;;2388626;56;21045;-83
2022/09/07 07:23:50;;;;;;;7.18;3.25;;;;;;;;;;2644659;52;21082;-83
2022/09/07 07:26:18;;;;;;;5.72;2.45;;;;;;;;;;2643945;52;21030;-83
2022/09/07 07:28:46;;;;;;;4.28;3.35;;;;;;;;;;2388431;56;21082;-82
2022/09/07 07:31:13;;;;;;;4.15;2.25;;;;;;;;;;2388601;56;21108;-82
2022/09/07 07:33:41;;;;;;;7.30;2.78;;;;;;;;;;2388354;56;22215;-82
2022/09/07 07:36:09;;;;;;;5.28;2.55;;;;;;;;;;2388013;56;21030;-82
2022/09/07 07:38:36;;;;;;;5.90;2.78;;;;;;;;;;2388323;56;21546;-82
2022/09/07 07:41:04;;;;;;;5.62;2.92;;;;;;;;;;2644732;52;21145;-82
2022/09/07 07:43:31;;;;;;;6.18;2.60;;;;;;;;;;2645781;52;21118;-82
2022/09/07 07:45:59;;;;;;;7.78;2.60;;;;;;;;;;2645057;52;21023;-81
2022/09/07 07:48:26;;;;;;;4.68;2.58;;;;;;;;;;2388266;56;21066;-82
2022/09/07 07:50:57;;;;;;;3.33;2.90;;;;;;;;;;2388172;56;21596;-82
2022/09/07 07:53:25;;;;;;;6.62;2.92;;;;;;;;;;2388211;56;21669;-82
2022/09/07 07:55:52;;;;;;;5.50;3.00;;;;;;;;;;2388159;56;21093;-82
2022/09/07 07:58:19;;;;;;;4.82;2.60;;;;;;;;;;2644517;52;21038;-83
2022/09/07 08:00:47;;;;;;;3.95;2.80;;;;;;;;;;2388762;56;21149;-84
2022/09/07 08:03:14;;;;;;;4.28;2.85;;;;;;;;;;2645137;52;21031;-84
2022/09/07 08:05:41;;;;;;;6.32;3.20;;;;;;;;;;2644890;52;21081;-83
2022/09/07 08:08:08;;;;;;;5.05;3.05;;;;;;;;;;2388997;56;21077;-84
2022/09/07 08:10:36;;;;;;;5.32;2.75;;;;;;;;;;2645729;52;21014;-84
2022/09/07 08:13:03;;;;;;;5.20;2.90;;;;;;;;;;2645496;52;21015;-84
2022/09/07 08:15:30;;;;;;;6.22;3.28;;;;;;;;;;2645342;52;21527;-83
2022/09/07 08:17:57;;;;;;;5.87;3.05;;;;;;;;;;2645471;51;21014;-83
2022/09/07 08:20:24;;;;;;;4.10;2.90;;;;;;;;;;2645429;52;21058;-84
2022/09/07 08:22:51;;;;;;;8.07;3.42;;;;;;;;;;2389048;56;21030;-83
2022/09/07 08:25:18;;;;;;;5.37;3.28;;;;;;;;;;2388203;56;21116;-83
2022/09/07 08:27:45;;;;;;;4.15;3.10;;;;;;;;;;2388237;56;21114;-84
2022/09/07 08:30:12;;;;;;;6.43;3.28;;;;;;;;;;2388023;56;21086;-84
2022/09/07 08:32:40;;;;;;;4.12;3.22;;;;;;;;;;2388310;56;21153;-84
2022/09/07 08:35:07;;;;;;;4.60;3.40;;;;;;;;;;2387862;56;21125;-84
2022/09/07 08:37:34;;;;;;;6.80;4.00;;;;;;;;;;2643953;51;21038;-84
2022/09/07 08:40:01;;;;;;;7.75;4.05;;;;;;;;;;2387816;56;21022;-84
2022/09/07 08:42:41;;;;;;;5.05;3.15;;;;;;;;;;2644258;52;21026;-84
2022/09/07 08:45:11;;;;;;;6.50;3.37;;;;;;;;;;2644181;52;21082;-82
2022/09/07 08:47:41;;;;;;;5.90;3.37;;;;;;;;;;2387785;56;21559;-82
2022/09/07 08:50:11;;;;;;;5.00;3.62;;;;;;;;;;2388084;56;21081;-82
2022/09/07 08:52:42;;;;;;;5.93;3.92;;;;;;;;;;2387960;56;21093;-82
2022/09/07 08:55:12;;;;;;;10.70;3.80;;;;;;;;;;2644123;52;21054;-81
2022/09/07 08:57:41;;;;;;;5.53;3.72;;;;;;;;;;2644262;51;21046;-82
2022/09/07 09:00:13;;;;;;;4.00;3.33;;;;;;;;;;2388063;56;21007;-82
2022/09/07 09:02:40;;;;;;;4.65;3.53;;;;;;;;;;2388109;56;21030;-82
2022/09/07 09:05:26;;;;;;;8.20;3.40;;;;;;;;;;2644044;52;21564;-82
2022/09/07 09:07:59;;;;;;;7.93;3.80;;;;;;;;;;2644618;52;21030;-82
2022/09/07 09:10:32;;;;;;;6.25;3.45;;;;;;;;;;2644511;52;21035;-82
2022/09/07 09:13:03;;;;;;;5.37;4.00;;;;;;;;;;2388413;56;21038;-82
2022/09/07 09:15:35;;;;;;;4.80;2.87;;;;;;;;;;2643771;52;21146;-82
2022/09/07 09:18:06;;;;;;;8.32;3.15;;;;;;;;;;2388368;56;21082;-82
2022/09/07 09:20:36;;;;;;;7.47;3.42;;;;;;;;;;2387295;56;21014;-82
2022/09/07 09:23:11;;;;;;;10.40;4.40;;;;;;;;;;2388337;56;21026;-82
2022/09/07 09:25:39;;;;;;;3.92;3.15;;;;;;;;;;2643739;52;21076;-82
2022/09/07 09:28:08;;;;;;;5.32;3.35;;;;;;;;;;2388315;56;21022;-82
2022/09/07 09:30:34;;;;;;;4.62;3.05;;;;;;;;;;2388234;56;21026;-82
2022/09/07 09:33:16;;;;;;;4.18;3.37;;;;;;;;;;2643586;52;21026;-81
2022/09/07 09:35:43;;;;;;;5.65;3.70;;;;;;;;;;2643124;52;21019;-82
2022/09/07 09:38:28;;;;;;;12.00;3.58;;;;;;;;;;2644539;52;21033;-82
2022/09/07 09:40:56;;;;;;;7.03;3.65;;;;;;;;;;2388220;56;21034;-83
2022/09/07 09:43:25;;;;;;;6.07;3.25;;;;;;;;;;2388478;56;21086;-83
2022/09/07 09:45:53;;;;;;;4.53;3.40;;;;;;;;;;2387599;56;21593;-83
2022/09/07 09:48:21;;;;;;;5.20;3.62;;;;;;;;;;2388286;56;21018;-83
2022/09/07 09:50:51;;;;;;;3.90;3.20;;;;;;;;;;2644371;52;21078;-83
2022/09/07 09:53:24;;;;;;;4.03;2.90;;;;;;;;;;2644634;52;21006;-83
2022/09/07 09:55:52;;;;;;;4.20;3.10;;;;;;;;;;2644048;52;21007;-83
2022/09/07 09:58:29;;;;;;;5.47;3.65;;;;;;;;;;2644408;51;21082;-83
2022/09/07 10:00:57;;;;;;;7.45;4.00;;;;;;;;;;2644354;52;21022;-83
2022/09/07 10:03:25;;;;;;;5.82;3.20;;;;;;;;;;2644452;52;21022;-83
2022/09/07 10:05:53;;;;;;;4.40;3.05;;;;;;;;;;2387820;56;21034;-83
2022/09/07 10:08:22;;;;;;;5.70;3.50;;;;;;;;;;2644516;52;21014;-83
2022/09/07 10:10:56;;;;;;;4.80;3.08;;;;;;;;;;2644310;52;21028;-83
2022/09/07 10:13:24;;;;;;;6.35;3.47;;;;;;;;;;2388173;56;21515;-83
2022/09/07 10:15:52;;;;;;;4.30;2.97;;;;;;;;;;2387673;56;21101;-83
2022/09/07 10:18:27;;;;;;;5.45;3.55;;;;;;;;;;2387977;56;21102;-83
2022/09/07 10:21:11;;;;;;;7.05;3.33;;;;;;;;;;2388106;56;21042;-83
2022/09/07 10:23:38;;;;;;;4.85;3.45;;;;;;;;;;2388232;56;21058;-83
2022/09/07 10:26:19;;;;;;;6.00;2.80;;;;;;;;;;2387082;56;21292;-83
2022/09/07 10:28:46;;;;;;;7.30;3.50;;;;;;;;;;2644313;51;21086;-83
2022/09/07 10:31:16;;;;;;;12.23;4.03;;;;;;;;;;2644248;52;21137;-83
2022/09/07 10:33:48;;;;;;;5.07;3.25;;;;;;;;;;2388291;56;21035;-83
2022/09/07 10:36:19;;;;;;;6.60;3.72;;;;;;;;;;2387731;56;21035;-83
2022/09/07 10:38:51;;;;;;;4.60;3.55;;;;;;;;;;2388025;56;21022;-83
2022/09/07 10:41:21;;;;;;;4.57;3.50;;;;;;;;;;2387977;56;21046;-83
2022/09/07 10:43:49;;;;;;;4.28;3.08;;;;;;;;;;2644077;52;21735;-83
2022/09/07 10:46:41;;;;;;;4.18;3.30;;;;;;;;;;2643540;52;21046;-82
2022/09/07 10:49:15;;;;;;;5.07;3.78;;;;;;;;;;2385086;56;21057;-82
2022/09/07 10:51:41;;;;;;;;;;;;;;;;;;2391575;56;21044;-83
2022/09/07 10:54:12;;;;;;;6.65;3.03;;;;;;;;;;2644425;52;20085;-83
2022/09/07 10:56:42;;;;;;;7.10;3.50;;;;;;;;;;2387617;56;21098;-83
2022/09/07 10:59:20;;;;;;;4.78;3.53;;;;;;;;;;2388002;56;21094;-83
2022/09/07 11:01:51;;;;;;;5.07;3.70;;;;;;;;;;2387965;56;21032;-83
2022/09/07 11:04:30;;;;;;;7.80;3.90;;;;;;;;;;2388142;56;21039;-83
2022/09/07 11:07:00;;;;;;;6.32;3.87;;;;;;;;;;2387555;55;21074;-83
2022/09/07 11:09:35;;;;;;;6.85;3.80;;;;;;;;;;2388199;56;21026;-83
2022/09/07 11:12:05;;;;;;;6.57;4.22;;;;;;;;;;2644126;52;21149;-83
2022/09/07 11:14:35;;;;;;;4.57;3.87;;;;;;;;;;2388181;56;21026;-83
2022/09/07 11:17:04;;;;;;;6.53;4.30;;;;;;;;;;2387616;56;21058;-84
2022/09/07 11:19:33;;;;;;;9.80;4.60;;;;;;;;;;2644249;52;21019;-83
2022/09/07 11:22:06;;;;;;;7.68;4.45;;;;;;;;;;2387987;56;21598;-84
2022/09/07 11:24:36;;;;;;;8.40;4.00;;;;;;;;;;2388309;56;21046;-83
2022/09/07 11:27:08;;;;;;;6.20;4.00;;;;;;;;;;2387652;56;21318;-83
2022/09/07 11:29:38;;;;;;;4.68;3.78;;;;;;;;;;2387962;56;21030;-83
2022/09/07 11:32:07;;;;;;;7.53;3.58;;;;;;;;;;2388056;56;21079;-83
2022/09/07 11:34:37;;;;;;;5.15;3.67;;;;;;;;;;2644120;52;21601;-83
2022/09/07 11:37:06;;;;;;;9.77;4.55;;;;;;;;;;2387520;56;21531;-83
2022/09/07 11:39:35;;;;;;;4.68;3.90;;;;;;;;;;2388085;56;21081;-83
2022/09/07 11:42:04;;;;;;;7.12;4.50;;;;;;;;;;2388025;56;21070;-83
2022/09/07 11:44:37;;;;;;;5.57;4.05;;;;;;;;;;2388076;56;21581;-83
2022/09/07 11:47:08;;;;;;;5.80;3.73;;;;;;;;;;2644143;51;21035;-83
2022/09/07 11:49:35;;;;;;;6.82;4.10;;;;;;;;;;2644014;52;21293;-83
2022/09/07 11:52:04;;;;;;;4.75;3.97;;;;;;;;;;2388028;56;21054;-83
2022/09/07 11:54:34;;;;;;;5.75;4.57;;;;;;;;;;2644338;52;21026;-82
2022/09/07 11:57:08;;;;;;;6.68;4.25;;;;;;;;;;2643552;51;21078;-83
2022/09/07 11:59:44;;;;;;;6.97;4.12;;;;;;;;;;2388053;56;21082;-83
2022/09/07 12:02:26;;;;;;;19.08;4.30;;;;;;;;;;2644085;52;21053;-82
2022/09/07 12:05:01;;;;;;;6.45;4.18;;;;;;;;;;2388079;56;21026;-82
2022/09/07 12:07:56;;;;;;;7.75;4.50;;;;;;;;;;2643657;51;21574;-82
2022/09/07 12:10:36;;;;;;;5.55;4.40;;;;;;;;;;2373278;56;21031;-83
2022/09/07 12:13:35;;;;;;;7.43;4.72;;;;;;;;;;2643853;52;21077;-82
2022/09/07 12:16:04;;;;;;;7.93;3.67;;;;;;;;;;2349295;56;21014;-83
2022/09/07 12:18:40;;;;;;;4.85;4.07;;;;;;;;;;2387597;56;21019;-83
2022/09/07 12:21:29;;;;;;;5.07;4.40;;;;;;;;;;2642745;52;21018;-82
2022/09/07 12:23:56;;;;;;;7.03;4.35;;;;;;;;;;2387980;56;21078;-82
2022/09/07 12:26:41;;;;;;;5.90;4.20;;;;;;;;;;2387831;56;21010;-82
2022/09/07 12:29:20;;;;;;;8.82;4.45;;;;;;;;;;2387829;56;21010;-82
2022/09/07 12:31:49;;;;;;;7.00;4.45;;;;;;;;;;2388133;56;21042;-82
2022/09/07 12:34:35;;;;;;;8.00;4.50;;;;;;;;;;2387888;56;21141;-82
2022/09/07 12:37:02;;;;;;;4.97;3.53;;;;;;;;;;2387743;56;21018;-82
2022/09/07 12:39:31;;;;;;;8.18;3.87;;;;;;;;;;2388269;56;21049;-82
2022/09/07 12:42:22;;;;;;;6.85;4.05;;;;;;;;;;2644679;52;21050;-82
2022/09/07 12:45:40;;;;;;;8.43;4.03;;;;;;;;;;2643929;52;21128;-82
2022/09/07 12:48:12;;;;;;;8.68;4.87;;;;;;;;;;2644178;51;21117;-82
2022/09/07 12:50:41;;;;;;;5.20;4.22;;;;;;;;;;2388217;56;21081;-83
2022/09/07 12:53:18;;;;;;;7.37;4.47;;;;;;;;;;2644543;52;21098;-83
2022/09/07 12:55:51;;;;;;;8.45;4.15;;;;;;;;;;2387946;56;21043;-82
2022/09/07 12:58:24;;;;;;;5.25;3.80;;;;;;;;;;2644384;51;21018;-83
2022/09/07 13:01:03;;;;;;;7.47;4.03;;;;;;;;;;2644593;52;21097;-82
2022/09/07 13:03:38;;;;;;;4.93;3.90;;;;;;;;;;2388390;56;21149;-82
2022/09/07 13:06:12;;;;;;;5.60;3.85;;;;;;;;;;2643857;52;21078;-82
2022/09/07 13:08:38;;;;;;;;;;;;;;;;;;2648338;51;21010;-82
2022/09/07 13:11:27;;;;;;;4.47;3.70;;;;;;;;;;2644310;52;20061;-83
2022/09/07 13:13:55;;;;;;;3.83;3.25;;;;;;;;;;2644735;52;21096;-82
2022/09/07 13:16:27;;;;;;;3.40;3.10;;;;;;;;;;2644253;52;21085;-82
2022/09/07 13:21:40;;;;;;;5.80;4.28;;;;;;;;;;2580297;53;21020;-74
2022/09/07 13:24:36;;;;;;;5.47;4.03;;;;;;;;;;2335362;57;21128;-74
2022/09/07 13:27:07;;;;;;;4.65;3.67;;;;;;;;;;2335223;57;21600;-74
2022/09/07 13:29:37;;;;;;;5.37;4.05;;;;;;;;;;2335375;57;21107;-76
2022/09/07 13:32:07;;;;;;;5.43;4.22;;;;;;;;;;2335464;57;21092;-75
2022/09/07 13:34:55;;;;;;;5.55;3.92;;;;;;;;;;2335270;57;21600;-74
2022/09/07 13:37:23;;;;;;;7.05;3.72;;;;;;;;;;2335177;57;21109;-74
2022/09/07 13:39:51;;;;;;;4.35;3.95;;;;;;;;;;2335339;57;21594;-75
2022/09/07 13:42:19;;;;;;;4.45;3.60;;;;;;;;;;2335408;57;21061;-75
2022/09/07 13:44:53;;;;;;;5.60;3.83;;;;;;;;;;2335340;57;21100;-74
2022/09/07 13:47:24;;;;;;;8.43;4.72;;;;;;;;;;2334988;57;21641;-74
2022/09/07 13:49:56;;;;;;;4.05;3.65;;;;;;;;;;2335226;57;21049;-74
2022/09/07 13:52:26;;;;;;;6.72;4.57;;;;;;;;;;2335545;57;21040;-75
2022/09/07 13:54:59;;;;;;;6.80;4.43;;;;;;;;;;2335173;57;21057;-75
2022/09/07 13:57:27;;;;;;;6.00;3.78;;;;;;;;;;2579918;53;21466;-75
2022/09/07 13:59:55;;;;;;;6.00;3.80;;;;;;;;;;2335230;57;21116;-75
2022/09/07 14:02:24;;;;;;;4.32;3.85;;;;;;;;;;2335271;57;21084;-75
2022/09/07 14:04:53;;;;;;;5.20;4.12;;;;;;;;;;2335234;57;21052;-74
2022/09/07 14:07:22;;;;;;;5.00;4.50;;;;;;;;;;2334941;57;21061;-74
2022/09/07 14:09:49;;;;;;;4.57;4.15;;;;;;;;;;2335191;57;21531;-75
2022/09/07 14:12:18;;;;;;;7.47;3.90;;;;;;;;;;2335423;57;21607;-74
2022/09/07 14:14:44;;;;;;;4.28;3.80;;;;;;;;;;2335367;57;21044;-74
2022/09/07 14:17:13;;;;;;;7.80;4.05;;;;;;;;;;2335009;57;21057;-74
2022/09/07 14:19:42;;;;;;;4.93;4.40;;;;;;;;;;2335260;57;21093;-74
2022/09/07 14:22:12;;;;;;;5.32;4.82;;;;;;;;;;2335285;57;21112;-74
2022/09/07 14:24:40;;;;;;;4.85;3.97;;;;;;;;;;2335228;57;21140;-75
2022/09/07 14:27:19;;;;;;;6.22;4.25;;;;;;;;;;2334924;57;21543;-74
2022/09/07 14:29:46;;;;;;;4.93;3.83;;;;;;;;;;2335207;57;21104;-75
2022/09/07 14:32:15;;;;;;;6.70;4.87;;;;;;;;;;2335563;57;21579;-74
2022/09/07 14:34:43;;;;;;;5.25;4.57;;;;;;;;;;2335117;57;21120;-75
2022/09/07 14:37:12;;;;;;;7.32;4.65;;;;;;;;;;2335047;57;21097;-75
2022/09/07 14:39:41;;;;;;;5.07;4.43;;;;;;;;;;2335250;57;21112;-75
2022/09/07 14:42:10;;;;;;;4.95;4.45;;;;;;;;;;2335321;57;21044;-75
2022/09/07 14:44:39;;;;;;;6.10;4.65;;;;;;;;;;2335084;57;21112;-75
2022/09/07 14:47:20;;;;;;;5.57;5.00;;;;;;;;;;2334912;57;21579;-74
2022/09/07 14:49:51;;;;;;;4.32;3.92;;;;;;;;;;2335191;57;21125;-75
2022/09/07 14:52:20;;;;;;;6.07;4.62;;;;;;;;;;2335363;57;21116;-75
2022/09/07 14:54:50;;;;;;;9.57;6.12;;;;;;;;;;2335032;57;21599;-74
2022/09/07 14:57:26;;;;;;;6.50;4.60;;;;;;;;;;2334976;57;21496;-75
2022/09/07 14:59:55;;;;;;;4.68;4.18;;;;;;;;;;2335310;57;21049;-74
2022/09/07 15:02:24;;;;;;;5.15;4.40;;;;;;;;;;2335278;57;21108;-75
2022/09/07 15:05:12;;;;;;;5.43;4.70;;;;;;;;;;2335413;57;21049;-74
2022/09/07 15:07:40;;;;;;;5.30;4.62;;;;;;;;;;2335015;57;21076;-75
2022/09/07 15:10:14;;;;;;;5.32;4.47;;;;;;;;;;2335221;57;21076;-74